Eastmont, South Carolina
Current Conditions -  °F | °C
As of 6:53 AM on Tuesday 27 Jan 2015 (Local Time) from KCUB Reporting Station
Clear Clear  
Wind Chill: 31°   Ceiling: Unl
Heat Index: 31°   Visibility: 10mi
Dew Point: 26°   Wind: 0mph
Humidity: 82%   Direction: NA
Pressure: 29.85"   Gusts: NA
Location:  33.9488°N, 80.9462°W
Report Text: KCUB 271153Z AUTO 00000KT 10SM CLR M01/M03 A2985 RMK AO2 SLP109 T10061033 10056 21006 53010
Loading
Personal Weather Stations






























Interactive Weather Map New forecast layout! Learn more

10-Day Weather Forecast

Advertisements
Track Severe Weather on mobile